createdAt,value
2018-07-24T00:02:11.700Z,62.90
2018-07-24T00:04:40.151Z,62.90
2018-07-24T00:07:08.556Z,63.00
2018-07-24T00:09:37.059Z,62.90
2018-07-24T00:12:05.532Z,63.40
2018-07-24T00:14:33.916Z,63.70
2018-07-24T00:17:02.368Z,63.80
2018-07-24T00:19:30.761Z,64.00
2018-07-24T00:21:59.139Z,64.50
2018-07-24T00:24:27.573Z,64.70
2018-07-24T00:26:56.013Z,64.60
2018-07-24T00:29:24.445Z,64.70
2018-07-24T00:31:53.523Z,64.60
2018-07-24T00:34:22.126Z,65.20
2018-07-24T00:36:50.606Z,65.30
2018-07-24T00:39:19.077Z,65.30
2018-07-24T00:41:47.428Z,65.40
2018-07-24T00:44:15.800Z,66.60
2018-07-24T00:46:44.736Z,66.80
2018-07-24T00:51:41.200Z,67.70
2018-07-24T00:54:09.667Z,68.10
2018-07-24T00:56:38.050Z,68.20
2018-07-24T00:59:06.608Z,68.50
2018-07-24T01:01:35.072Z,68.70
2018-07-24T01:04:04.311Z,68.80
2018-07-24T01:09:00.856Z,69.10
2018-07-24T01:11:29.316Z,69.30
2018-07-24T01:13:57.736Z,69.40
2018-07-24T01:18:54.361Z,69.30
2018-07-24T01:21:22.764Z,69.00
2018-07-24T01:23:51.134Z,69.60
2018-07-24T01:26:19.564Z,70.00
2018-07-24T01:28:48.539Z,70.00
2018-07-24T01:31:17.125Z,69.90
2018-07-24T01:36:13.677Z,69.60
2018-07-24T01:38:42.150Z,69.70
2018-07-24T01:41:10.614Z,69.90
2018-07-24T01:43:39.017Z,70.00
2018-07-24T01:46:07.401Z,70.70
2018-07-24T01:48:35.805Z,71.30
2018-07-24T01:51:04.250Z,71.60
2018-07-24T01:53:32.637Z,72.20
2018-07-24T01:56:01.054Z,72.20
2018-07-24T01:58:29.421Z,72.10
2018-07-24T02:01:02.122Z,72.10
2018-07-24T02:03:30.954Z,72.10
2018-07-24T02:05:59.334Z,71.70
2018-07-24T02:08:27.780Z,71.50
2018-07-24T02:10:56.210Z,71.40
2018-07-24T02:13:25.077Z,71.40
2018-07-24T02:15:53.568Z,71.10
2018-07-24T02:18:21.931Z,71.00
2018-07-24T02:20:50.446Z,71.10
2018-07-24T02:23:18.833Z,71.30
2018-07-24T02:25:47.298Z,71.60
2018-07-24T02:28:15.772Z,71.60
2018-07-24T02:30:44.179Z,72.00
2018-07-24T02:33:12.581Z,72.00
2018-07-24T02:35:41.050Z,71.90
2018-07-24T02:38:09.495Z,71.90
2018-07-24T02:40:37.889Z,71.90
2018-07-24T02:43:06.610Z,71.90
2018-07-24T02:45:35.038Z,71.90
2018-07-24T02:48:03.434Z,72.60
2018-07-24T02:50:31.926Z,71.90
2018-07-24T02:53:00.438Z,71.80
2018-07-24T02:55:28.870Z,71.70
2018-07-24T02:57:57.368Z,72.40
2018-07-24T03:00:25.845Z,72.60
2018-07-24T03:02:54.233Z,72.80
2018-07-24T03:05:22.655Z,72.90
2018-07-24T03:07:51.061Z,73.10
2018-07-24T03:10:19.471Z,73.30
2018-07-24T03:12:47.915Z,73.60
2018-07-24T03:15:16.362Z,73.80
2018-07-24T03:17:44.717Z,74.00
2018-07-24T03:20:13.126Z,74.00
2018-07-24T03:22:41.558Z,74.20
2018-07-24T03:25:09.986Z,74.80
2018-07-24T03:27:38.417Z,74.80
2018-07-24T03:30:06.878Z,74.90
2018-07-24T03:32:35.321Z,74.70
2018-07-24T03:35:03.786Z,74.80
2018-07-24T03:37:32.225Z,74.80
2018-07-24T03:40:00.712Z,75.00
2018-07-24T03:42:29.106Z,75.00
2018-07-24T03:44:57.850Z,75.20
2018-07-24T03:47:26.244Z,75.00
2018-07-24T03:49:54.641Z,74.80
2018-07-24T03:52:23.065Z,74.70
2018-07-24T03:54:51.476Z,74.90
2018-07-24T03:57:19.881Z,75.10
2018-07-24T03:59:48.514Z,75.30
2018-07-24T04:02:16.972Z,75.90
2018-07-24T04:04:45.374Z,76.00
2018-07-24T04:07:14.650Z,76.20
2018-07-24T04:09:43.051Z,76.50
2018-07-24T04:12:11.470Z,76.40
2018-07-24T04:14:39.850Z,76.70
2018-07-24T04:17:08.322Z,77.00
2018-07-24T04:19:36.745Z,77.10
2018-07-24T04:22:05.161Z,77.20
2018-07-24T04:24:33.613Z,77.30
2018-07-24T04:27:02.050Z,76.80
2018-07-24T04:29:30.428Z,76.60
2018-07-24T04:31:58.876Z,76.70
2018-07-24T04:34:27.369Z,76.50
2018-07-24T04:36:55.758Z,76.70
2018-07-24T04:39:24.262Z,76.80
2018-07-24T04:41:52.650Z,76.70
2018-07-24T04:44:27.470Z,77.10
2018-07-24T04:46:55.905Z,77.00
2018-07-24T04:49:24.387Z,76.80
2018-07-24T04:51:52.778Z,77.20
2018-07-24T04:54:21.157Z,77.10
2018-07-24T04:56:49.655Z,76.70
2018-07-24T04:59:18.062Z,76.50
2018-07-24T05:01:46.499Z,75.90
2018-07-24T05:04:14.917Z,75.60
2018-07-24T05:06:43.337Z,75.80
2018-07-24T05:09:13.417Z,75.00
2018-07-24T05:11:42.196Z,74.30
2018-07-24T05:14:11.421Z,74.80
2018-07-24T05:19:09.065Z,64.00
2018-07-24T05:21:37.755Z,71.60
2018-07-24T05:24:06.492Z,72.60
2018-07-24T05:26:34.973Z,73.20
2018-07-24T05:29:03.495Z,73.00
2018-07-24T05:31:32.111Z,73.30
2018-07-24T05:34:01.072Z,73.30
2018-07-24T05:36:30.193Z,73.40
2018-07-24T05:38:58.620Z,73.30
2018-07-24T05:41:27.136Z,73.30
2018-07-24T05:43:55.572Z,72.50
2018-07-24T05:51:20.176Z,72.50
2018-07-24T05:53:48.585Z,71.00
2018-07-24T05:56:16.974Z,71.50
2018-07-24T05:58:45.993Z,71.30
2018-07-24T06:01:14.437Z,71.80
2018-07-24T06:03:42.942Z,70.90
2018-07-24T06:06:11.445Z,70.60
2018-07-24T06:08:39.952Z,70.30
2018-07-24T06:11:08.770Z,70.00
2018-07-24T06:13:37.185Z,70.60
2018-07-24T06:16:05.733Z,69.20
2018-07-24T06:18:34.155Z,68.80
2018-07-24T06:21:02.583Z,68.40
2018-07-24T06:23:31.032Z,68.30
2018-07-24T06:25:59.491Z,68.40
2018-07-24T06:28:28.122Z,67.60
2018-07-24T06:30:56.590Z,68.60
2018-07-24T06:33:25.001Z,67.80
2018-07-24T06:35:53.428Z,68.10
2018-07-24T06:38:21.890Z,66.10
2018-07-24T06:40:50.342Z,65.80
2018-07-24T06:43:18.835Z,65.80
2018-07-24T06:45:47.218Z,65.50
2018-07-24T06:48:15.662Z,64.60
2018-07-24T06:50:44.047Z,63.20
2018-07-24T06:53:12.469Z,62.20
2018-07-24T06:55:40.996Z,60.80
2018-07-24T06:58:09.402Z,61.40
2018-07-24T07:00:37.866Z,59.50
2018-07-24T07:03:06.313Z,59.00
2018-07-24T07:05:34.753Z,60.60
2018-07-24T07:08:03.192Z,60.00
2018-07-24T07:10:38.170Z,59.40
2018-07-24T07:13:06.861Z,59.00
2018-07-24T07:15:35.667Z,58.20
2018-07-24T07:18:04.261Z,57.50
2018-07-24T07:20:32.948Z,57.90
2018-07-24T07:23:01.345Z,57.30
2018-07-24T07:25:29.776Z,57.60
2018-07-24T07:27:58.283Z,57.20
2018-07-24T07:30:26.666Z,57.30
2018-07-24T07:35:23.949Z,57.10
2018-07-24T07:37:52.373Z,57.20
2018-07-24T07:40:20.838Z,56.20
2018-07-24T07:42:49.254Z,57.40
2018-07-24T07:45:17.701Z,57.00
2018-07-24T07:47:46.141Z,56.20
2018-07-24T07:50:14.533Z,56.90
2018-07-24T07:52:42.963Z,56.70
2018-07-24T07:55:11.362Z,55.80
2018-07-24T07:57:39.785Z,54.10
2018-07-24T08:00:08.198Z,54.20
2018-07-24T08:02:36.788Z,52.80
2018-07-24T08:05:05.197Z,53.20
2018-07-24T08:07:33.621Z,52.40
2018-07-24T08:10:02.045Z,51.20
2018-07-24T08:12:30.430Z,52.90
2018-07-24T08:14:58.897Z,51.50
2018-07-24T08:17:27.401Z,51.00
2018-07-24T08:19:55.811Z,50.60
2018-07-24T08:22:24.360Z,49.00
2018-07-24T08:24:52.887Z,50.40
2018-07-24T08:27:21.314Z,48.70
2018-07-24T08:29:49.702Z,47.70
2018-07-24T08:32:18.137Z,47.60
2018-07-24T08:34:46.566Z,46.90
2018-07-24T08:37:15.055Z,47.00
2018-07-24T08:39:43.917Z,46.10
2018-07-24T08:42:12.382Z,47.50
2018-07-24T08:44:40.803Z,47.40
2018-07-24T08:47:09.244Z,47.00
2018-07-24T08:52:06.861Z,45.00
2018-07-24T08:54:35.440Z,43.80
2018-07-24T08:57:03.867Z,44.90
2018-07-24T08:59:32.249Z,43.50
2018-07-24T09:02:01.213Z,43.50
2018-07-24T09:04:29.831Z,42.50
2018-07-24T09:06:58.845Z,42.50
2018-07-24T09:09:27.269Z,42.70
2018-07-24T09:11:55.676Z,43.60
2018-07-24T09:14:24.060Z,44.50
2018-07-24T09:16:52.457Z,45.80
2018-07-24T09:19:21.578Z,46.30
2018-07-24T09:21:49.989Z,46.00
2018-07-24T09:24:18.369Z,47.20
2018-07-24T09:26:46.769Z,46.70
2018-07-24T09:29:15.127Z,46.70
2018-07-24T09:31:43.588Z,47.20
2018-07-24T09:34:11.995Z,46.40
2018-07-24T09:36:40.417Z,45.40
2018-07-24T09:39:09.953Z,43.40
2018-07-24T09:41:38.783Z,42.40
2018-07-24T09:44:07.270Z,41.40
2018-07-24T09:46:35.812Z,41.50
2018-07-24T09:49:04.366Z,39.30
2018-07-24T09:51:33.431Z,39.60
2018-07-24T09:54:02.157Z,39.00
2018-07-24T09:56:30.751Z,38.50
2018-07-24T09:58:59.205Z,38.90
2018-07-24T10:01:30.605Z,39.00
2018-07-24T10:03:59.432Z,39.10
2018-07-24T10:06:27.833Z,38.80
2018-07-24T10:08:56.223Z,38.80
2018-07-24T10:11:24.677Z,39.70
2018-07-24T10:13:53.114Z,40.00
2018-07-24T10:16:21.617Z,41.20
2018-07-24T10:18:50.088Z,38.80
2018-07-24T10:21:18.573Z,37.30
2018-07-24T10:23:46.959Z,37.10
2018-07-24T10:26:15.528Z,37.00
2018-07-24T10:28:44.046Z,37.30
2018-07-24T10:31:12.454Z,37.60
2018-07-24T10:33:40.877Z,36.40
2018-07-24T10:36:09.238Z,35.30
2018-07-24T10:38:37.813Z,35.40
2018-07-24T10:41:06.370Z,35.60
2018-07-24T10:43:34.970Z,35.00
2018-07-24T10:46:03.532Z,35.50
2018-07-24T10:48:32.018Z,36.60
2018-07-24T10:51:00.498Z,35.10
2018-07-24T10:53:28.921Z,34.30
2018-07-24T10:58:25.473Z,33.20
2018-07-24T11:00:53.875Z,33.60
2018-07-24T11:03:22.300Z,34.40
2018-07-24T11:05:50.750Z,34.80
2018-07-24T11:08:19.321Z,34.50
2018-07-24T11:10:47.773Z,34.10
2018-07-24T11:13:16.210Z,33.90
2018-07-24T11:15:44.631Z,33.00
2018-07-24T11:18:13.121Z,33.70
2018-07-24T11:20:41.572Z,33.10
2018-07-24T11:23:10.221Z,34.00
2018-07-24T11:25:39.424Z,34.20
2018-07-24T11:28:07.835Z,34.60
2018-07-24T11:30:36.316Z,34.70
2018-07-24T11:33:04.832Z,35.50
2018-07-24T11:35:33.381Z,35.40
2018-07-24T11:38:01.805Z,34.30
2018-07-24T11:40:30.257Z,32.50
2018-07-24T11:42:58.679Z,32.50
2018-07-24T11:47:55.328Z,31.70
2018-07-24T11:50:23.782Z,32.50
2018-07-24T11:52:53.001Z,33.00
2018-07-24T11:55:21.436Z,33.00
2018-07-24T11:57:49.886Z,32.50
2018-07-24T12:00:18.319Z,31.60
2018-07-24T12:02:46.724Z,32.80
2018-07-24T12:05:15.142Z,34.80
2018-07-24T12:07:44.605Z,34.60
2018-07-24T12:10:13.046Z,32.50
2018-07-24T12:12:41.420Z,31.50
2018-07-24T12:15:09.847Z,31.10
2018-07-24T12:17:38.438Z,30.80
2018-07-24T12:22:34.973Z,30.60
2018-07-24T12:25:03.492Z,29.90
2018-07-24T12:27:31.974Z,31.40
2018-07-24T12:30:00.394Z,31.80
2018-07-24T12:32:28.822Z,30.40
2018-07-24T12:34:57.422Z,30.00
2018-07-24T12:37:25.837Z,30.10
2018-07-24T12:39:54.246Z,30.00
2018-07-24T12:42:22.683Z,31.00
2018-07-24T12:44:51.074Z,31.90
2018-07-24T12:47:19.525Z,32.80
2018-07-24T12:49:48.007Z,32.80
2018-07-24T12:52:16.412Z,32.90
2018-07-24T12:54:44.798Z,32.50
2018-07-24T12:59:41.307Z,31.50
2018-07-24T13:02:09.762Z,31.40
2018-07-24T13:04:38.234Z,30.00
2018-07-24T13:07:06.698Z,30.00
2018-07-24T13:09:35.837Z,30.20
2018-07-24T13:12:04.284Z,29.80
2018-07-24T13:14:32.681Z,29.40
2018-07-24T13:17:01.105Z,29.90
2018-07-24T13:19:29.512Z,30.60
2018-07-24T13:24:26.940Z,30.00
2018-07-24T13:26:55.348Z,30.10
2018-07-24T13:29:23.766Z,29.60
2018-07-24T13:31:52.295Z,29.50
2018-07-24T13:34:20.562Z,29.20
2018-07-24T13:36:49.032Z,29.10
2018-07-24T13:39:17.434Z,29.80
2018-07-24T13:41:45.865Z,29.90
2018-07-24T13:44:14.242Z,29.10
2018-07-24T13:46:42.701Z,29.20
2018-07-24T13:49:11.098Z,29.70
2018-07-24T13:51:39.528Z,30.00
2018-07-24T13:54:07.917Z,29.50
2018-07-24T13:56:36.307Z,29.30
2018-07-24T13:59:04.728Z,29.70
2018-07-24T14:01:33.177Z,29.50
2018-07-24T14:04:01.595Z,29.90
2018-07-24T14:06:30.019Z,29.90
2018-07-24T14:08:58.404Z,30.70
2018-07-24T14:11:26.835Z,31.20
2018-07-24T14:13:55.294Z,31.20
2018-07-24T14:16:23.789Z,30.50
2018-07-24T14:18:52.220Z,30.30
2018-07-24T14:21:20.707Z,30.20
2018-07-24T14:23:49.105Z,31.00
2018-07-24T14:26:17.497Z,30.70
2018-07-24T14:28:45.909Z,31.20
2018-07-24T14:31:14.303Z,31.30
2018-07-24T14:33:42.650Z,30.60
2018-07-24T14:36:11.147Z,30.60
2018-07-24T14:38:39.579Z,30.10
2018-07-24T14:41:08.058Z,29.90
2018-07-24T14:43:36.454Z,30.00
2018-07-24T14:46:04.928Z,30.10
2018-07-24T14:48:33.779Z,30.20
2018-07-24T14:51:02.137Z,29.90
2018-07-24T14:53:30.693Z,29.40
2018-07-24T14:55:59.111Z,30.00
2018-07-24T14:58:27.547Z,30.80
2018-07-24T15:00:55.895Z,30.70
2018-07-24T15:03:24.288Z,30.10
2018-07-24T15:05:52.761Z,31.00
2018-07-24T15:08:21.218Z,31.10
2018-07-24T15:10:49.650Z,30.80
2018-07-24T15:13:18.049Z,30.40
2018-07-24T15:15:46.434Z,31.50
2018-07-24T15:20:44.466Z,30.70
2018-07-24T15:23:13.058Z,30.60
2018-07-24T15:25:41.475Z,30.90
2018-07-24T15:28:09.941Z,30.70
2018-07-24T15:30:38.445Z,30.70
2018-07-24T15:33:06.954Z,30.70
2018-07-24T15:38:03.453Z,30.70
2018-07-24T15:40:31.882Z,30.70
2018-07-24T15:43:00.433Z,30.60
2018-07-24T15:45:28.841Z,31.30
2018-07-24T15:47:57.280Z,31.70
2018-07-24T15:50:25.642Z,32.10
2018-07-24T15:52:54.065Z,33.60
2018-07-24T15:55:22.541Z,32.00
2018-07-24T15:57:50.999Z,31.80
2018-07-24T16:00:19.438Z,32.00
2018-07-24T16:05:16.109Z,31.70
2018-07-24T16:07:44.541Z,32.10
2018-07-24T16:10:12.949Z,31.70
2018-07-24T16:15:09.742Z,31.70
2018-07-24T16:17:38.226Z,31.70
2018-07-24T16:20:06.973Z,31.90
2018-07-24T16:22:35.437Z,31.80
2018-07-24T16:25:04.092Z,31.80
2018-07-24T16:27:32.525Z,31.70
2018-07-24T16:30:01.524Z,31.70
2018-07-24T16:34:58.597Z,33.10
2018-07-24T16:39:55.117Z,31.60
2018-07-24T16:42:23.587Z,31.20
2018-07-24T16:44:52.044Z,31.40
2018-07-24T16:47:20.493Z,31.60
2018-07-24T16:52:17.074Z,31.60
2018-07-24T16:54:45.653Z,31.60
2018-07-24T16:59:42.233Z,33.10
2018-07-24T17:02:11.070Z,32.90
2018-07-24T17:04:41.034Z,33.40
2018-07-24T17:07:09.478Z,33.80
2018-07-24T17:09:37.951Z,34.30
2018-07-24T17:12:06.857Z,34.50
2018-07-24T17:14:35.642Z,34.80
2018-07-24T17:17:04.064Z,34.80
2018-07-24T17:19:32.550Z,35.00
2018-07-24T17:22:00.978Z,34.70
2018-07-24T17:24:29.840Z,35.10
2018-07-24T17:26:58.249Z,35.30
2018-07-24T17:29:27.198Z,34.60
2018-07-24T17:31:55.664Z,34.40
2018-07-24T17:34:24.082Z,35.30
2018-07-24T17:36:52.671Z,34.90
2018-07-24T17:39:21.092Z,35.40
2018-07-24T17:41:49.529Z,35.00
2018-07-24T17:44:18.026Z,34.90
2018-07-24T17:46:46.480Z,35.90
2018-07-24T17:49:14.949Z,35.80
2018-07-24T17:51:43.394Z,36.00
2018-07-24T17:54:11.817Z,36.30
2018-07-24T17:56:40.215Z,36.70
2018-07-24T17:59:08.745Z,35.80
2018-07-24T18:01:37.179Z,35.90
2018-07-24T18:04:05.744Z,35.60
2018-07-24T18:06:34.166Z,35.50
2018-07-24T18:09:02.679Z,35.90
2018-07-24T18:11:31.070Z,35.70
2018-07-24T18:13:59.513Z,36.20
2018-07-24T18:16:27.991Z,37.10
2018-07-24T18:18:56.399Z,37.00
2018-07-24T18:21:24.938Z,38.30
2018-07-24T18:23:53.318Z,38.20
2018-07-24T18:26:21.778Z,38.00
2018-07-24T18:28:50.222Z,38.40
2018-07-24T18:31:18.612Z,38.50
2018-07-24T18:33:46.989Z,38.90
2018-07-24T18:36:15.413Z,41.10
2018-07-24T18:38:44.035Z,42.30
2018-07-24T18:41:12.350Z,43.20
2018-07-24T18:43:40.792Z,43.50
2018-07-24T18:46:09.201Z,43.90
2018-07-24T18:48:37.654Z,44.20
2018-07-24T18:51:06.233Z,44.50
2018-07-24T18:53:34.869Z,44.40
2018-07-24T18:56:03.341Z,44.10
2018-07-24T18:58:31.763Z,44.40
2018-07-24T19:01:00.163Z,44.50
2018-07-24T19:03:29.071Z,44.80
2018-07-24T19:05:57.599Z,44.60
2018-07-24T19:08:26.536Z,44.60
2018-07-24T19:10:55.126Z,44.40
2018-07-24T19:13:23.525Z,45.00
2018-07-24T19:15:51.943Z,44.90
2018-07-24T19:18:20.694Z,44.70
2018-07-24T19:20:49.143Z,44.80
2018-07-24T19:23:17.596Z,44.60
2018-07-24T19:25:47.213Z,44.80
2018-07-24T19:28:15.632Z,44.90
2018-07-24T19:30:44.268Z,44.80
2018-07-24T19:33:12.777Z,44.80
2018-07-24T19:35:41.160Z,45.00
2018-07-24T19:38:09.685Z,44.70
2018-07-24T19:40:38.142Z,44.60
2018-07-24T19:43:06.579Z,45.00
2018-07-24T19:45:35.161Z,45.10
2018-07-24T19:48:03.595Z,45.50
2018-07-24T19:50:31.993Z,45.50
2018-07-24T19:53:00.429Z,45.60
2018-07-24T19:55:28.849Z,45.30
2018-07-24T19:57:57.379Z,45.40
2018-07-24T20:00:25.833Z,45.10
2018-07-24T20:05:22.410Z,45.40
2018-07-24T20:07:50.860Z,45.40
2018-07-24T20:10:19.366Z,45.50
2018-07-24T20:12:47.830Z,45.80
2018-07-24T20:15:19.177Z,45.80
2018-07-24T20:17:47.778Z,46.10
2018-07-24T20:20:16.737Z,46.40
2018-07-24T20:22:45.736Z,46.10
2018-07-24T20:25:14.187Z,46.30
2018-07-24T20:27:42.773Z,46.30
2018-07-24T20:30:11.225Z,46.20
2018-07-24T20:32:39.669Z,46.20
2018-07-24T20:35:08.453Z,46.20
2018-07-24T20:40:05.787Z,46.20
2018-07-24T20:42:34.561Z,46.20
2018-07-24T20:45:03.751Z,46.30
2018-07-24T20:47:32.677Z,46.30
2018-07-24T20:50:01.096Z,46.20
2018-07-24T20:52:29.571Z,46.60
2018-07-24T20:54:57.989Z,46.60
2018-07-24T20:57:26.426Z,47.10
2018-07-24T20:59:54.967Z,46.80
2018-07-24T21:02:23.493Z,47.00
2018-07-24T21:04:51.972Z,47.00
2018-07-24T21:07:20.456Z,46.80
2018-07-24T21:09:48.881Z,47.00
2018-07-24T21:12:17.317Z,46.90
2018-07-24T21:14:45.741Z,47.10
2018-07-24T21:17:14.137Z,47.30
2018-07-24T21:19:42.566Z,47.10
2018-07-24T21:22:11.045Z,46.90
2018-07-24T21:24:39.430Z,46.80
2018-07-24T21:27:07.859Z,46.80
2018-07-24T21:29:36.284Z,47.40
2018-07-24T21:32:04.763Z,46.90
2018-07-24T21:34:33.873Z,47.00
2018-07-24T21:37:02.250Z,47.00
2018-07-24T21:39:30.641Z,47.20
2018-07-24T21:41:59.065Z,47.00
2018-07-24T21:44:27.498Z,47.20
2018-07-24T21:46:55.932Z,47.40
2018-07-24T21:49:24.286Z,47.50
2018-07-24T21:51:52.767Z,47.60
2018-07-24T21:54:21.177Z,47.60
2018-07-24T21:56:49.620Z,47.80
2018-07-24T21:59:18.015Z,47.80
2018-07-24T22:01:46.518Z,47.70
2018-07-24T22:04:14.953Z,47.70
2018-07-24T22:06:43.990Z,47.90
2018-07-24T22:09:12.475Z,47.70
2018-07-24T22:11:40.856Z,47.90
2018-07-24T22:14:09.260Z,47.90
2018-07-24T22:16:37.750Z,48.20
2018-07-24T22:19:06.232Z,48.40
2018-07-24T22:21:34.625Z,48.50
2018-07-24T22:24:03.085Z,48.50
2018-07-24T22:26:31.519Z,48.60
2018-07-24T22:28:59.953Z,48.90
2018-07-24T22:31:28.337Z,48.90
2018-07-24T22:33:56.761Z,49.10
2018-07-24T22:36:25.159Z,49.10
2018-07-24T22:38:53.605Z,49.30
2018-07-24T22:41:22.028Z,49.30
2018-07-24T22:43:50.492Z,49.40
2018-07-24T22:46:18.901Z,49.40
2018-07-24T22:48:47.503Z,49.30
2018-07-24T22:51:15.997Z,49.60
2018-07-24T22:53:44.761Z,49.30
2018-07-24T22:56:13.237Z,49.60
2018-07-24T22:58:41.596Z,49.30
2018-07-24T23:01:10.129Z,49.20
2018-07-24T23:03:38.539Z,49.30
2018-07-24T23:06:06.898Z,49.30
2018-07-24T23:08:35.441Z,49.20
2018-07-24T23:11:03.833Z,49.20
2018-07-24T23:13:32.247Z,49.50
2018-07-24T23:16:00.669Z,49.20
2018-07-24T23:18:29.134Z,49.30
2018-07-24T23:20:57.556Z,49.10
2018-07-24T23:25:54.090Z,49.00
2018-07-24T23:28:22.453Z,49.00
2018-07-24T23:30:50.910Z,49.10
2018-07-24T23:33:19.297Z,48.90
2018-07-24T23:35:47.795Z,48.60
2018-07-24T23:38:16.230Z,48.50
2018-07-24T23:40:44.677Z,48.50
2018-07-24T23:43:13.889Z,48.70
2018-07-24T23:45:42.769Z,48.60
2018-07-24T23:48:11.259Z,48.30
2018-07-24T23:53:07.998Z,48.40
2018-07-24T23:55:36.413Z,48.20
